createdAt,value
2023-09-11T00:00:12.686Z,71.48
2023-09-11T00:02:44.449Z,71.75
2023-09-11T00:05:16.105Z,71.42
2023-09-11T00:07:47.700Z,71.28
2023-09-11T00:10:19.301Z,71.42
2023-09-11T00:12:50.991Z,72.10
2023-09-11T00:15:22.664Z,71.34
2023-09-11T00:17:54.246Z,70.81
2023-09-11T00:20:25.978Z,71.23
2023-09-11T00:22:57.562Z,71.14
2023-09-11T00:25:30.029Z,70.81
2023-09-11T00:28:01.929Z,70.65
2023-09-11T00:30:33.658Z,70.82
2023-09-11T00:33:06.044Z,71.41
2023-09-11T00:35:37.853Z,71.45
2023-09-11T00:38:09.378Z,70.84
2023-09-11T00:40:40.957Z,71.80
2023-09-11T00:43:12.506Z,71.23
2023-09-11T00:45:44.290Z,71.50
2023-09-11T00:48:15.970Z,72.22
2023-09-11T00:50:48.163Z,71.59
2023-09-11T00:53:20.638Z,72.54
2023-09-11T00:55:52.692Z,73.08
2023-09-11T00:58:24.707Z,72.08
2023-09-11T01:00:56.348Z,72.33
2023-09-11T01:03:28.234Z,72.95
2023-09-11T01:06:00.497Z,72.93
2023-09-11T01:08:32.639Z,72.94
2023-09-11T01:11:04.064Z,73.62
2023-09-11T01:13:35.694Z,73.49
2023-09-11T01:16:18.566Z,74.17
2023-09-11T01:18:55.381Z,74.23
2023-09-11T01:21:33.386Z,74.04
2023-09-11T01:24:25.691Z,74.70
2023-09-11T01:26:57.207Z,74.41
2023-09-11T01:29:34.395Z,74.50
2023-09-11T01:32:07.059Z,74.57
2023-09-11T01:34:38.766Z,74.33
2023-09-11T01:37:10.335Z,74.52
2023-09-11T01:39:42.023Z,75.03
2023-09-11T01:42:20.097Z,74.43
2023-09-11T01:44:53.175Z,75.14
2023-09-11T01:47:26.355Z,74.43
2023-09-11T01:49:59.559Z,74.69
2023-09-11T01:52:32.556Z,74.61
2023-09-11T01:55:04.768Z,75.24
2023-09-11T01:57:36.460Z,75.45
2023-09-11T02:00:09.461Z,75.52
2023-09-11T02:02:41.226Z,75.72
2023-09-11T02:05:13.007Z,75.25
2023-09-11T02:07:44.569Z,75.63
2023-09-11T02:10:17.169Z,75.29
2023-09-11T02:12:48.803Z,75.24
2023-09-11T02:15:20.345Z,75.58
2023-09-11T02:17:52.043Z,75.62
2023-09-11T02:20:23.683Z,76.04
2023-09-11T02:22:55.293Z,75.97
2023-09-11T02:25:27.268Z,76.54
2023-09-11T02:27:58.683Z,77.08
2023-09-11T02:30:30.256Z,76.75
2023-09-11T02:33:01.862Z,76.96
2023-09-11T02:35:33.605Z,76.71
2023-09-11T02:38:05.336Z,76.58
2023-09-11T02:40:38.225Z,76.93
2023-09-11T02:43:09.814Z,76.50
2023-09-11T02:45:45.136Z,76.89
2023-09-11T02:48:16.813Z,76.93
2023-09-11T02:50:48.517Z,77.41
2023-09-11T02:53:20.947Z,77.53
2023-09-11T02:55:52.889Z,77.62
2023-09-11T02:58:25.019Z,78.29
2023-09-11T03:01:04.606Z,78.11
2023-09-11T03:03:36.327Z,77.75
2023-09-11T03:06:07.951Z,78.17
2023-09-11T03:08:39.902Z,77.90
2023-09-11T03:11:11.530Z,77.66
2023-09-11T03:13:43.116Z,77.16
2023-09-11T03:16:16.386Z,77.23
2023-09-11T03:18:48.348Z,77.28
2023-09-11T03:21:19.884Z,77.30
2023-09-11T03:23:51.484Z,77.83
2023-09-11T03:26:23.038Z,77.39
2023-09-11T03:28:55.143Z,77.54
2023-09-11T03:31:26.645Z,78.64
2023-09-11T03:33:58.318Z,78.19
2023-09-11T03:36:30.057Z,77.95
2023-09-11T03:39:01.691Z,78.99
2023-09-11T03:41:34.041Z,78.65
2023-09-11T03:44:05.877Z,78.88
2023-09-11T03:46:37.412Z,78.75
2023-09-11T03:49:09.101Z,79.23
2023-09-11T03:51:40.695Z,78.97
2023-09-11T03:54:12.196Z,79.33
2023-09-11T03:56:43.817Z,80.08
2023-09-11T03:59:15.384Z,80.22
2023-09-11T04:01:46.952Z,80.65
2023-09-11T04:04:18.552Z,80.65
2023-09-11T04:06:50.204Z,81.24
2023-09-11T04:09:21.729Z,81.60
2023-09-11T04:11:53.382Z,81.69
2023-09-11T04:14:24.978Z,81.68
2023-09-11T04:16:57.332Z,81.11
2023-09-11T04:19:28.932Z,81.51
2023-09-11T04:22:00.523Z,81.15
2023-09-11T04:24:32.667Z,81.01
2023-09-11T04:27:04.334Z,81.53
2023-09-11T04:29:36.121Z,82.03
2023-09-11T04:32:07.880Z,82.17
2023-09-11T04:34:39.462Z,82.24
2023-09-11T04:37:10.996Z,82.24
2023-09-11T04:39:42.583Z,82.75
2023-09-11T04:42:14.202Z,82.65
2023-09-11T04:44:46.584Z,82.88
2023-09-11T04:47:18.143Z,82.62
2023-09-11T04:49:49.676Z,83.02
2023-09-11T04:52:21.185Z,83.16
2023-09-11T04:54:53.425Z,83.14
2023-09-11T04:57:25.022Z,83.02
2023-09-11T04:59:56.655Z,83.60
2023-09-11T05:02:28.328Z,83.10
2023-09-11T05:04:59.949Z,83.83
2023-09-11T05:07:31.953Z,83.34
2023-09-11T05:10:06.457Z,83.47
2023-09-11T05:12:38.040Z,83.20
2023-09-11T05:15:10.220Z,83.57
2023-09-11T05:17:42.233Z,84.26
2023-09-11T05:20:14.005Z,84.86
2023-09-11T05:22:45.519Z,84.76
2023-09-11T05:25:17.145Z,84.80
2023-09-11T05:27:49.161Z,85.76
2023-09-11T05:30:21.840Z,86.00
2023-09-11T05:32:54.540Z,85.31
2023-09-11T05:35:26.282Z,85.33
2023-09-11T05:37:57.846Z,85.68
2023-09-11T05:40:29.450Z,85.11
2023-09-11T05:43:01.011Z,86.02
2023-09-11T05:45:32.548Z,85.94
2023-09-11T05:48:04.316Z,86.41
2023-09-11T05:50:35.974Z,85.61
2023-09-11T05:53:08.085Z,86.90
2023-09-11T05:55:39.662Z,86.66
2023-09-11T05:58:11.214Z,86.78
2023-09-11T06:00:43.342Z,87.84
2023-09-11T06:03:14.999Z,87.49
2023-09-11T06:05:46.659Z,88.08
2023-09-11T06:08:18.922Z,87.21
2023-09-11T06:10:50.464Z,87.61
2023-09-11T06:13:22.032Z,90.95
2023-09-11T06:15:53.660Z,89.61
2023-09-11T06:18:25.291Z,89.13
2023-09-11T06:20:57.029Z,89.81
2023-09-11T06:23:28.774Z,89.33
2023-09-11T06:26:00.353Z,88.79
2023-09-11T06:28:31.891Z,88.69
2023-09-11T06:31:03.525Z,88.37
2023-09-11T06:33:35.564Z,88.09
2023-09-11T06:36:07.313Z,88.80
2023-09-11T06:38:39.627Z,87.24
2023-09-11T06:41:11.545Z,87.73
2023-09-11T06:43:44.030Z,87.04
2023-09-11T06:46:16.073Z,87.01
2023-09-11T06:48:47.844Z,88.39
2023-09-11T06:51:19.620Z,86.47
2023-09-11T06:53:51.242Z,86.55
2023-09-11T06:56:22.767Z,85.94
2023-09-11T06:58:54.349Z,86.05
2023-09-11T07:01:25.920Z,85.80
2023-09-11T07:03:57.640Z,85.80
2023-09-11T07:06:29.343Z,85.94
2023-09-11T07:09:00.997Z,84.58
2023-09-11T07:11:32.691Z,84.28
2023-09-11T07:14:06.486Z,84.56
2023-09-11T07:16:38.062Z,83.10
2023-09-11T07:19:09.620Z,83.06
2023-09-11T07:21:42.710Z,82.63
2023-09-11T07:24:14.302Z,81.96
2023-09-11T07:26:45.848Z,81.33
2023-09-11T07:29:17.443Z,81.58
2023-09-11T07:31:49.065Z,80.55
2023-09-11T07:34:20.693Z,80.21
2023-09-11T07:36:52.309Z,79.56
2023-09-11T07:39:24.204Z,78.43
2023-09-11T07:41:58.224Z,77.92
2023-09-11T07:44:30.056Z,77.02
2023-09-11T07:47:01.791Z,76.42
2023-09-11T07:49:33.534Z,75.88
2023-09-11T07:52:05.358Z,76.25
2023-09-11T07:54:36.891Z,75.04
2023-09-11T07:57:08.477Z,75.03
2023-09-11T07:59:40.590Z,75.25
2023-09-11T08:02:12.268Z,74.67
2023-09-11T08:04:43.893Z,74.23
2023-09-11T08:07:15.533Z,73.04
2023-09-11T08:09:47.774Z,72.62
2023-09-11T08:12:19.533Z,71.91
2023-09-11T08:14:51.084Z,72.11
2023-09-11T08:17:22.826Z,71.54
2023-09-11T08:19:54.364Z,71.35
2023-09-11T08:22:25.968Z,70.68
2023-09-11T08:24:57.567Z,70.31
2023-09-11T08:27:29.248Z,68.92
2023-09-11T08:30:00.838Z,69.30
2023-09-11T08:32:35.175Z,67.89
2023-09-11T08:35:07.112Z,67.50
2023-09-11T08:37:38.689Z,66.39
2023-09-11T08:40:10.524Z,65.64
2023-09-11T08:42:41.990Z,66.45
2023-09-11T08:45:13.582Z,65.41
2023-09-11T08:47:46.307Z,63.21
2023-09-11T08:50:20.094Z,64.02
2023-09-11T08:52:54.625Z,63.85
2023-09-11T08:55:28.867Z,63.69
2023-09-11T08:58:12.308Z,61.88
2023-09-11T09:00:43.953Z,63.48
2023-09-11T09:03:17.411Z,63.05
2023-09-11T09:05:49.138Z,60.72
2023-09-11T09:08:21.660Z,60.97
2023-09-11T09:10:54.374Z,60.63
2023-09-11T09:13:26.058Z,60.99
2023-09-11T09:15:57.615Z,59.81
2023-09-11T09:18:29.930Z,60.19
2023-09-11T09:21:02.560Z,58.28
2023-09-11T09:23:37.645Z,58.75
2023-09-11T09:26:11.181Z,58.83
2023-09-11T09:28:48.629Z,58.07
2023-09-11T09:31:29.438Z,56.99
2023-09-11T09:34:01.154Z,57.74
2023-09-11T09:36:33.159Z,58.17
2023-09-11T09:39:05.000Z,56.90
2023-09-11T09:41:36.560Z,53.35
2023-09-11T09:44:08.258Z,55.04
2023-09-11T09:46:42.986Z,54.08
2023-09-11T09:49:15.555Z,50.42
2023-09-11T09:51:47.416Z,51.33
2023-09-11T09:54:19.230Z,50.96
2023-09-11T09:56:50.975Z,49.14
2023-09-11T09:59:25.381Z,49.35
2023-09-11T10:01:57.027Z,49.19
2023-09-11T10:04:29.100Z,48.35
2023-09-11T10:07:00.708Z,49.90
2023-09-11T10:09:32.635Z,49.54
2023-09-11T10:12:05.647Z,49.08
2023-09-11T10:14:37.234Z,47.69
2023-09-11T10:17:09.060Z,47.22
2023-09-11T10:19:40.912Z,47.57
2023-09-11T10:22:12.423Z,46.87
2023-09-11T10:24:43.998Z,48.19
2023-09-11T10:27:15.630Z,48.63
2023-09-11T10:29:52.590Z,47.81
2023-09-11T10:32:27.541Z,48.24
2023-09-11T10:35:00.412Z,48.05
2023-09-11T10:37:33.366Z,48.16
2023-09-11T10:40:07.273Z,45.62
2023-09-11T10:42:42.484Z,47.25
2023-09-11T10:45:30.737Z,47.02
2023-09-11T10:48:05.290Z,48.11
2023-09-11T10:50:38.741Z,47.52
2023-09-11T10:53:10.971Z,49.02
2023-09-11T10:55:42.619Z,48.85
2023-09-11T10:58:14.281Z,49.45
2023-09-11T11:00:45.859Z,49.89
2023-09-11T11:03:17.536Z,48.22
2023-09-11T11:05:49.351Z,48.57
2023-09-11T11:08:21.561Z,47.90
2023-09-11T11:10:57.072Z,46.58
2023-09-11T11:13:28.842Z,46.87
2023-09-11T11:16:24.520Z,45.81
2023-09-11T11:18:56.233Z,45.69
2023-09-11T11:21:39.592Z,43.29
2023-09-11T11:24:11.263Z,42.37
2023-09-11T11:26:42.725Z,41.86
2023-09-11T11:29:15.981Z,42.50
2023-09-11T11:31:51.713Z,41.92
2023-09-11T11:34:33.175Z,40.02
2023-09-11T11:37:05.997Z,40.12
2023-09-11T11:39:38.340Z,41.34
2023-09-11T11:42:10.848Z,41.32
2023-09-11T11:44:42.626Z,40.81
2023-09-11T11:47:15.118Z,41.29
2023-09-11T11:49:48.195Z,40.07
2023-09-11T11:52:22.013Z,40.29
2023-09-11T11:54:53.676Z,37.85
2023-09-11T11:57:25.197Z,38.55
2023-09-11T11:59:56.842Z,37.92
2023-09-11T12:02:28.484Z,39.11
2023-09-11T12:05:00.032Z,37.38
2023-09-11T12:07:33.310Z,37.74
2023-09-11T12:10:06.293Z,38.83
2023-09-11T12:12:41.906Z,39.00
2023-09-11T12:15:13.541Z,37.29
2023-09-11T12:17:50.325Z,37.10
2023-09-11T12:20:23.808Z,36.97
2023-09-11T12:22:55.370Z,37.05
2023-09-11T12:25:26.931Z,36.61
2023-09-11T12:28:00.359Z,35.89
2023-09-11T12:30:32.082Z,36.41
2023-09-11T12:33:09.508Z,36.04
2023-09-11T12:35:42.983Z,35.20
2023-09-11T12:38:14.819Z,36.34
2023-09-11T12:40:49.319Z,36.49
2023-09-11T12:43:22.458Z,35.48
2023-09-11T12:45:54.358Z,36.88
2023-09-11T12:48:26.383Z,36.99
2023-09-11T12:50:58.440Z,36.63
2023-09-11T12:53:30.247Z,36.91
2023-09-11T12:56:02.418Z,36.12
2023-09-11T12:58:37.816Z,35.66
2023-09-11T13:01:12.917Z,35.33
2023-09-11T13:03:47.201Z,36.65
2023-09-11T13:06:19.498Z,35.85
2023-09-11T13:08:54.884Z,35.86
2023-09-11T13:11:26.834Z,35.54
2023-09-11T13:14:13.900Z,35.25
2023-09-11T13:16:46.958Z,34.92
2023-09-11T13:19:18.798Z,35.19
2023-09-11T13:21:51.313Z,35.50
2023-09-11T13:24:23.051Z,34.67
2023-09-11T13:26:54.785Z,35.17
2023-09-11T13:29:26.417Z,34.73
2023-09-11T13:31:58.011Z,34.48
2023-09-11T13:34:32.481Z,34.57
2023-09-11T13:37:04.194Z,33.20
2023-09-11T13:39:35.729Z,32.31
2023-09-11T13:42:07.678Z,28.65
2023-09-11T13:44:39.258Z,27.18
2023-09-11T13:47:10.903Z,26.12
2023-09-11T13:49:42.417Z,21.75
2023-09-11T13:52:15.713Z,22.32
2023-09-11T13:54:47.934Z,20.88
2023-09-11T13:57:19.706Z,17.24
2023-09-11T13:59:51.493Z,16.73
2023-09-11T14:02:23.145Z,16.36
2023-09-11T14:04:55.858Z,13.97
2023-09-11T14:07:27.473Z,12.80
2023-09-11T14:09:59.130Z,12.40
2023-09-11T14:12:30.993Z,12.21
2023-09-11T14:15:02.835Z,11.29
2023-09-11T14:17:34.534Z,11.06
2023-09-11T14:20:08.853Z,10.86
2023-09-11T14:22:42.325Z,11.08
2023-09-11T14:25:13.933Z,11.84
2023-09-11T14:27:45.445Z,12.74
2023-09-11T14:30:17.213Z,11.31
2023-09-11T14:32:48.990Z,10.51
2023-09-11T14:35:20.681Z,9.42
2023-09-11T14:37:52.242Z,9.20
2023-09-11T14:40:23.807Z,9.09
2023-09-11T14:42:55.414Z,9.21
2023-09-11T14:45:27.100Z,8.93
2023-09-11T14:47:58.798Z,8.46
2023-09-11T14:50:30.341Z,9.89
2023-09-11T14:53:01.904Z,9.83
2023-09-11T14:55:33.439Z,9.78
2023-09-11T14:58:05.036Z,10.29
2023-09-11T15:00:36.651Z,10.41
2023-09-11T15:03:08.340Z,10.01
2023-09-11T15:05:40.013Z,11.01
2023-09-11T15:08:13.697Z,11.00
2023-09-11T15:10:47.195Z,10.70
2023-09-11T15:13:18.795Z,10.13
2023-09-11T15:15:50.379Z,9.50
2023-09-11T15:18:22.244Z,9.84
2023-09-11T15:20:54.532Z,9.88
2023-09-11T15:23:26.101Z,8.58
2023-09-11T15:25:57.680Z,7.86
2023-09-11T15:28:29.263Z,8.06
2023-09-11T15:31:00.789Z,8.28
2023-09-11T15:33:32.425Z,8.59
2023-09-11T15:36:05.434Z,9.58
2023-09-11T15:38:42.052Z,8.49
2023-09-11T15:41:13.946Z,9.17
2023-09-11T15:43:47.506Z,9.78
2023-09-11T15:46:35.069Z,9.64
2023-09-11T15:49:12.544Z,9.58
2023-09-11T15:51:44.626Z,9.16
2023-09-11T15:54:16.229Z,9.14
2023-09-11T15:56:47.862Z,11.59
2023-09-11T15:59:19.422Z,13.07
2023-09-11T16:01:51.020Z,14.93
2023-09-11T16:04:22.910Z,17.82
2023-09-11T16:06:54.734Z,18.76
2023-09-11T16:09:27.503Z,19.57
2023-09-11T16:12:00.329Z,20.63
2023-09-11T16:14:32.104Z,23.61
2023-09-11T16:17:03.929Z,24.47
2023-09-11T16:19:35.609Z,26.24
2023-09-11T16:22:07.142Z,26.53
2023-09-11T16:24:38.740Z,29.37
2023-09-11T16:27:11.700Z,27.74
2023-09-11T16:29:43.457Z,29.17
2023-09-11T16:32:15.095Z,29.01
2023-09-11T16:34:46.744Z,29.45
2023-09-11T16:37:18.292Z,31.02
2023-09-11T16:39:49.862Z,31.55
2023-09-11T16:42:21.533Z,31.70
2023-09-11T16:44:53.866Z,32.30
2023-09-11T16:47:28.842Z,35.47
2023-09-11T16:50:00.554Z,35.32
2023-09-11T16:52:32.478Z,36.26
2023-09-11T16:55:05.396Z,37.19
2023-09-11T16:57:37.050Z,37.98
2023-09-11T17:00:09.125Z,37.66
2023-09-11T17:02:40.812Z,38.50
2023-09-11T17:05:12.488Z,39.00
2023-09-11T17:07:44.047Z,40.36
2023-09-11T17:10:15.753Z,40.07
2023-09-11T17:12:47.281Z,40.87
2023-09-11T17:15:18.851Z,40.89
2023-09-11T17:17:50.484Z,40.92
2023-09-11T17:20:23.956Z,42.31
2023-09-11T17:22:55.456Z,42.61
2023-09-11T17:25:26.918Z,42.83
2023-09-11T17:27:58.492Z,42.84
2023-09-11T17:30:30.308Z,43.75
2023-09-11T17:33:02.161Z,43.88
2023-09-11T17:35:35.670Z,44.42
2023-09-11T17:38:07.605Z,44.09
2023-09-11T17:40:39.317Z,45.28
2023-09-11T17:43:11.002Z,45.61
2023-09-11T17:45:42.539Z,46.33
2023-09-11T17:48:14.669Z,46.00
2023-09-11T17:50:53.417Z,46.87
2023-09-11T17:53:25.112Z,46.80
2023-09-11T17:56:00.797Z,47.03
2023-09-11T17:58:32.597Z,47.25
2023-09-11T18:01:04.267Z,47.85
2023-09-11T18:03:35.864Z,48.12
2023-09-11T18:06:07.782Z,48.13
2023-09-11T18:08:39.640Z,47.76
2023-09-11T18:11:11.545Z,47.61
2023-09-11T18:13:44.253Z,49.38
2023-09-11T18:16:15.862Z,48.54
2023-09-11T18:18:47.477Z,50.21
2023-09-11T18:21:19.159Z,50.03
2023-09-11T18:23:50.674Z,51.12
2023-09-11T18:26:22.959Z,50.20
2023-09-11T18:28:54.497Z,50.55
2023-09-11T18:31:26.149Z,50.07
2023-09-11T18:33:58.016Z,51.15
2023-09-11T18:36:29.776Z,51.15
2023-09-11T18:39:02.525Z,52.50
2023-09-11T18:41:34.525Z,50.87
2023-09-11T18:44:06.192Z,52.14
2023-09-11T18:46:38.673Z,51.45
2023-09-11T18:49:10.347Z,53.08
2023-09-11T18:51:41.926Z,53.80
2023-09-11T18:54:16.601Z,52.50
2023-09-11T18:56:48.284Z,53.80
2023-09-11T18:59:19.900Z,53.27
2023-09-11T19:01:51.758Z,53.98
2023-09-11T19:04:24.884Z,55.01
2023-09-11T19:06:56.693Z,55.16
2023-09-11T19:09:28.414Z,55.59
2023-09-11T19:12:00.122Z,54.83
2023-09-11T19:14:31.734Z,54.65
2023-09-11T19:17:05.718Z,54.20
2023-09-11T19:19:37.808Z,54.99
2023-09-11T19:22:10.856Z,54.82
2023-09-11T19:24:42.932Z,54.80
2023-09-11T19:27:15.245Z,54.40
2023-09-11T19:29:46.884Z,55.46
2023-09-11T19:32:18.628Z,55.10
2023-09-11T19:34:50.549Z,55.46
2023-09-11T19:37:24.390Z,57.05
2023-09-11T19:39:55.943Z,56.02
2023-09-11T19:42:27.722Z,56.33
2023-09-11T19:44:59.347Z,56.08
2023-09-11T19:47:32.695Z,55.28
2023-09-11T19:50:04.682Z,56.86
2023-09-11T19:52:36.116Z,57.48
2023-09-11T19:55:07.930Z,57.46
2023-09-11T19:57:39.808Z,57.86
2023-09-11T20:00:12.098Z,57.36
2023-09-11T20:02:43.742Z,57.74
2023-09-11T20:05:16.292Z,57.11
2023-09-11T20:07:47.994Z,57.93
2023-09-11T20:10:19.728Z,57.05
2023-09-11T20:12:52.419Z,58.60
2023-09-11T20:15:24.366Z,57.91
2023-09-11T20:17:56.045Z,58.86
2023-09-11T20:20:27.932Z,58.89
2023-09-11T20:22:59.399Z,60.12
2023-09-11T20:25:32.448Z,59.95
2023-09-11T20:28:04.743Z,59.90
2023-09-11T20:30:37.314Z,60.35
2023-09-11T20:33:11.131Z,60.14
2023-09-11T20:35:44.118Z,59.66
2023-09-11T20:38:21.414Z,60.75
2023-09-11T20:40:53.604Z,60.88
2023-09-11T20:43:25.189Z,59.84
2023-09-11T20:45:56.820Z,61.15
2023-09-11T20:48:29.674Z,60.28
2023-09-11T20:51:01.345Z,61.68
2023-09-11T20:53:32.881Z,62.28
2023-09-11T20:56:05.820Z,62.33
2023-09-11T20:58:37.730Z,62.58
2023-09-11T21:01:10.248Z,62.63
2023-09-11T21:03:42.061Z,63.15
2023-09-11T21:06:13.917Z,62.69
2023-09-11T21:08:45.673Z,62.62
2023-09-11T21:11:23.968Z,62.50
2023-09-11T21:13:56.682Z,62.24
2023-09-11T21:16:29.080Z,62.67
2023-09-11T21:19:00.812Z,62.73
2023-09-11T21:21:32.819Z,62.96
2023-09-11T21:24:05.996Z,62.94
2023-09-11T21:26:38.683Z,62.83
2023-09-11T21:29:11.819Z,62.73
2023-09-11T21:31:43.377Z,62.82
2023-09-11T21:34:14.967Z,63.22
2023-09-11T21:36:46.477Z,63.91
2023-09-11T21:39:18.081Z,63.97
2023-09-11T21:41:49.667Z,64.10
2023-09-11T21:44:21.209Z,63.49
2023-09-11T21:46:52.816Z,64.33
2023-09-11T21:49:24.429Z,65.38
2023-09-11T21:51:56.013Z,64.50
2023-09-11T21:54:28.045Z,64.11
2023-09-11T21:57:00.036Z,64.76
2023-09-11T21:59:32.972Z,64.37
2023-09-11T22:02:05.547Z,65.59
2023-09-11T22:04:37.454Z,65.56
2023-09-11T22:07:09.060Z,65.18
2023-09-11T22:09:40.638Z,65.24
2023-09-11T22:12:13.349Z,64.80
2023-09-11T22:14:46.698Z,65.38
2023-09-11T22:17:19.799Z,65.64
2023-09-11T22:19:51.401Z,66.39
2023-09-11T22:22:23.173Z,66.35
2023-09-11T22:24:54.907Z,65.70
2023-09-11T22:27:26.531Z,66.36
2023-09-11T22:29:58.159Z,65.67
2023-09-11T22:32:41.112Z,66.52
2023-09-11T22:35:20.816Z,66.77
2023-09-11T22:37:55.440Z,67.08
2023-09-11T22:40:26.973Z,67.53
2023-09-11T22:42:58.789Z,66.75
2023-09-11T22:45:30.314Z,66.92
2023-09-11T22:48:01.998Z,67.25
2023-09-11T22:50:35.650Z,67.03
2023-09-11T22:53:07.305Z,67.20
2023-09-11T22:55:39.451Z,67.36
2023-09-11T22:58:11.418Z,67.26
2023-09-11T23:00:42.802Z,68.35
2023-09-11T23:03:14.416Z,68.18
2023-09-11T23:05:46.061Z,67.54
2023-09-11T23:08:17.648Z,67.93
2023-09-11T23:10:49.166Z,67.39
2023-09-11T23:13:20.724Z,67.34
2023-09-11T23:15:52.437Z,66.95
2023-09-11T23:18:24.100Z,67.58
2023-09-11T23:20:55.732Z,67.95
2023-09-11T23:23:36.960Z,67.96
2023-09-11T23:26:08.486Z,67.36
2023-09-11T23:28:40.377Z,67.85
2023-09-11T23:31:12.462Z,68.38
2023-09-11T23:33:44.221Z,68.36
2023-09-11T23:36:15.864Z,68.04
2023-09-11T23:38:47.457Z,69.12
2023-09-11T23:41:19.050Z,68.78
2023-09-11T23:43:50.662Z,69.33
2023-09-11T23:46:22.300Z,69.81
2023-09-11T23:48:54.108Z,69.81
2023-09-11T23:51:25.820Z,69.81
2023-09-11T23:53:57.677Z,70.40
2023-09-11T23:56:29.280Z,70.65
2023-09-11T23:59:00.841Z,70.16
